createdAt,value
2018-07-11T00:03:00.010Z,4.30
2018-07-11T00:07:43.601Z,4.37
2018-07-11T00:12:28.226Z,4.60
2018-07-11T00:17:15.397Z,4.40
2018-07-11T00:21:59.066Z,4.77
2018-07-11T00:26:42.585Z,4.40
2018-07-11T00:31:29.826Z,4.97
2018-07-11T00:36:13.353Z,4.50
2018-07-11T00:41:01.085Z,4.27
2018-07-11T00:45:44.601Z,4.93
2018-07-11T00:50:28.112Z,4.90
2018-07-11T00:55:11.637Z,4.87
2018-07-11T00:59:55.708Z,5.00
2018-07-11T01:04:40.362Z,5.33
2018-07-11T01:09:23.693Z,5.10
2018-07-11T01:14:07.063Z,5.03
2018-07-11T01:19:08.490Z,4.97
2018-07-11T01:23:52.240Z,5.53
2018-07-11T01:28:35.822Z,4.87
2018-07-11T01:33:20.474Z,5.30
2018-07-11T01:38:04.037Z,5.60
2018-07-11T01:42:50.889Z,5.70
2018-07-11T01:47:34.329Z,5.57
2018-07-11T01:52:28.728Z,5.70
2018-07-11T01:57:12.320Z,4.77
2018-07-11T02:01:59.259Z,5.60
2018-07-11T02:06:42.846Z,5.43
2018-07-11T02:11:31.580Z,5.60
2018-07-11T02:16:15.123Z,4.87
2018-07-11T02:21:02.527Z,5.50
2018-07-11T02:25:47.283Z,5.53
2018-07-11T02:30:33.960Z,5.97
2018-07-11T02:35:17.531Z,6.43
2018-07-11T02:40:01.124Z,6.03
2018-07-11T02:44:48.021Z,6.23
2018-07-11T02:49:31.557Z,5.77
2018-07-11T02:54:15.373Z,6.27
2018-07-11T02:58:58.762Z,6.03
2018-07-11T03:03:43.426Z,5.67
2018-07-11T03:08:35.023Z,6.03
2018-07-11T03:13:21.170Z,5.80
2018-07-11T03:18:05.319Z,6.07
2018-07-11T03:22:52.445Z,6.83
2018-07-11T03:27:36.076Z,7.37
2018-07-11T03:32:20.873Z,8.20
2018-07-11T03:37:04.458Z,10.00
2018-07-11T03:41:48.193Z,10.40
2018-07-11T03:46:31.980Z,10.80
2018-07-11T03:51:16.419Z,8.47
2018-07-11T03:56:00.014Z,9.50
2018-07-11T04:00:47.490Z,9.13
2018-07-11T04:05:31.091Z,7.80
2018-07-11T04:10:14.641Z,8.70
2018-07-11T04:14:58.305Z,7.27
2018-07-11T04:19:41.820Z,6.47
2018-07-11T04:24:25.927Z,7.67
2018-07-11T04:29:10.319Z,6.87
2018-07-11T04:33:54.009Z,7.60
2018-07-11T04:38:37.606Z,7.13
2018-07-11T04:43:23.413Z,8.23
2018-07-11T04:48:08.366Z,6.67
2018-07-11T04:52:51.885Z,8.17
2018-07-11T04:57:35.437Z,8.30
2018-07-11T05:02:19.267Z,8.43
2018-07-11T05:07:02.874Z,7.13
2018-07-11T05:11:47.625Z,7.53
2018-07-11T05:16:31.190Z,9.73
2018-07-11T05:21:17.982Z,8.53
2018-07-11T05:26:01.508Z,6.90
2018-07-11T05:30:45.320Z,6.70
2018-07-11T05:35:34.215Z,7.03
2018-07-11T05:40:18.692Z,5.90
2018-07-11T05:45:02.272Z,5.67
2018-07-11T05:49:45.762Z,5.40
2018-07-11T05:54:29.571Z,5.17
2018-07-11T05:59:13.188Z,4.67
2018-07-11T06:03:57.042Z,4.80
2018-07-11T06:08:40.584Z,4.47
2018-07-11T06:13:25.316Z,3.90
2018-07-11T06:18:09.381Z,4.10
2018-07-11T06:22:53.141Z,4.13
2018-07-11T06:27:36.779Z,4.47
2018-07-11T06:32:20.455Z,3.90
2018-07-11T06:37:04.047Z,4.57
2018-07-11T06:41:47.769Z,3.90
2018-07-11T06:46:31.319Z,4.03
2018-07-11T06:51:19.916Z,3.67
2018-07-11T06:56:03.480Z,3.87
2018-07-11T07:00:47.383Z,3.73
2018-07-11T07:05:31.281Z,3.90
2018-07-11T07:10:20.324Z,3.53
2018-07-11T07:15:05.255Z,3.90
2018-07-11T07:19:49.395Z,3.80
2018-07-11T07:24:33.571Z,4.70
2018-07-11T07:29:17.452Z,4.50
2018-07-11T07:34:04.317Z,4.23
2018-07-11T07:38:47.792Z,3.73
2018-07-11T07:43:31.614Z,4.33
2018-07-11T07:48:16.123Z,4.73
2018-07-11T07:52:59.885Z,4.30
2018-07-11T07:57:43.478Z,4.50
2018-07-11T08:02:28.095Z,4.27
2018-07-11T08:07:11.524Z,3.93
2018-07-11T08:11:56.245Z,4.20
2018-07-11T08:16:39.842Z,3.90
2018-07-11T08:21:23.616Z,4.27
2018-07-11T08:26:17.914Z,3.93
2018-07-11T08:31:53.355Z,3.60
2018-07-11T08:38:51.394Z,3.93
2018-07-11T08:45:54.015Z,3.87
2018-07-11T08:53:10.972Z,3.83
2018-07-11T08:58:21.312Z,3.87
2018-07-11T09:05:20.217Z,3.97
2018-07-11T09:12:25.493Z,3.47
2018-07-11T09:18:21.610Z,4.00
2018-07-11T09:23:23.030Z,4.20
2018-07-11T09:28:06.558Z,4.60
2018-07-11T09:32:50.097Z,4.00
2018-07-11T09:37:33.955Z,4.33
2018-07-11T09:42:18.747Z,4.13
2018-07-11T09:47:33.007Z,3.47
2018-07-11T09:52:20.555Z,3.63
2018-07-11T09:57:05.146Z,4.30
2018-07-11T10:01:52.274Z,4.37
2018-07-11T10:06:35.783Z,4.33
2018-07-11T10:11:22.491Z,3.97
2018-07-11T10:16:05.958Z,4.23
2018-07-11T10:20:50.635Z,3.70
2018-07-11T10:25:34.201Z,3.97
2018-07-11T10:30:18.686Z,3.53
2018-07-11T10:35:03.106Z,3.93
2018-07-11T10:39:47.825Z,4.20
2018-07-11T10:44:31.645Z,4.70
2018-07-11T10:49:23.253Z,4.20
2018-07-11T10:54:06.664Z,3.50
2018-07-11T10:58:50.436Z,3.50
2018-07-11T11:03:34.976Z,3.80
2018-07-11T11:08:18.519Z,3.80
2018-07-11T11:13:05.906Z,3.73
2018-07-11T11:17:49.382Z,3.67
2018-07-11T11:22:33.040Z,3.77
2018-07-11T11:27:16.573Z,3.63
2018-07-11T11:32:01.444Z,3.57
2018-07-11T11:36:44.885Z,3.93
2018-07-11T11:41:32.068Z,3.43
2018-07-11T11:46:15.571Z,3.63
2018-07-11T11:50:59.261Z,3.50
2018-07-11T11:55:43.925Z,4.10
2018-07-11T12:00:30.618Z,3.70
2018-07-11T12:05:14.253Z,3.87
2018-07-11T12:10:01.488Z,4.00
2018-07-11T12:14:45.108Z,4.17
2018-07-11T12:19:28.740Z,3.40
2018-07-11T12:24:12.348Z,3.62
2018-07-11T12:28:55.860Z,3.52
2018-07-11T12:33:39.449Z,3.45
2018-07-11T12:38:22.927Z,3.55
2018-07-11T12:43:07.021Z,4.37
2018-07-11T12:47:55.936Z,3.95
2018-07-11T12:52:39.636Z,3.95
2018-07-11T12:57:25.126Z,4.53
2018-07-11T13:02:09.717Z,4.30
2018-07-11T13:06:53.301Z,3.90
2018-07-11T13:11:37.900Z,3.80
2018-07-11T13:16:21.462Z,3.98
2018-07-11T13:21:05.301Z,3.60
2018-07-11T13:25:48.849Z,3.95
2018-07-11T13:30:32.430Z,3.80
2018-07-11T13:35:15.927Z,4.08
2018-07-11T13:40:04.875Z,3.75
2018-07-11T13:44:48.455Z,3.90
2018-07-11T13:49:32.245Z,3.83
2018-07-11T13:54:15.710Z,4.20
2018-07-11T13:58:59.144Z,5.75
2018-07-11T14:03:42.767Z,3.77
2018-07-11T14:08:26.189Z,4.20
2018-07-11T14:13:09.717Z,3.98
2018-07-11T14:17:53.306Z,4.08
2018-07-11T14:22:38.013Z,3.87
2018-07-11T14:27:22.683Z,4.30
2018-07-11T14:32:06.933Z,3.77
2018-07-11T14:36:50.512Z,3.33
2018-07-11T14:41:36.123Z,3.58
2018-07-11T14:46:19.701Z,3.77
2018-07-11T14:51:14.505Z,4.28
2018-07-11T14:55:57.836Z,4.17
2018-07-11T15:00:45.528Z,4.12
2018-07-11T15:05:29.548Z,4.37
2018-07-11T15:10:16.872Z,4.28
2018-07-11T15:15:00.340Z,3.45
2018-07-11T15:19:47.467Z,4.80
2018-07-11T15:24:30.982Z,5.17
2018-07-11T15:29:14.703Z,5.33
2018-07-11T15:33:58.230Z,5.65
2018-07-11T15:38:44.953Z,4.60
2018-07-11T15:43:30.284Z,5.15
2018-07-11T15:48:13.749Z,5.23
2018-07-11T15:52:57.722Z,5.33
2018-07-11T15:57:47.850Z,4.53
2018-07-11T16:02:33.755Z,4.78
2018-07-11T16:07:18.046Z,5.07
2018-07-11T16:12:05.156Z,4.50
2018-07-11T16:16:48.590Z,4.60
2018-07-11T16:21:33.118Z,4.90
2018-07-11T16:26:16.502Z,5.40
2018-07-11T16:31:10.306Z,4.97
2018-07-11T16:35:53.854Z,4.83
2018-07-11T16:40:38.431Z,5.50
2018-07-11T16:45:22.740Z,5.73
2018-07-11T16:50:12.110Z,5.90
2018-07-11T16:54:55.640Z,5.80
2018-07-11T16:59:48.902Z,5.33
2018-07-11T17:04:33.400Z,5.60
2018-07-11T17:09:16.955Z,6.40
2018-07-11T17:14:02.226Z,6.43
2018-07-11T17:18:48.991Z,7.47
2018-07-11T17:23:32.525Z,6.63
2018-07-11T17:28:15.978Z,5.90
2018-07-11T17:33:01.103Z,6.20
2018-07-11T17:37:44.590Z,5.63
2018-07-11T17:42:31.840Z,5.47
2018-07-11T17:47:15.284Z,5.20
2018-07-11T17:52:09.729Z,5.73
2018-07-11T17:56:59.123Z,5.57
2018-07-11T18:01:50.812Z,5.10
2018-07-11T18:07:16.098Z,5.90
2018-07-11T18:12:11.699Z,5.50
2018-07-11T18:16:59.810Z,5.67
2018-07-11T18:22:26.452Z,6.23
2018-07-11T18:28:37.126Z,5.20
2018-07-11T18:33:32.381Z,6.37
2018-07-11T18:38:23.615Z,5.80
2018-07-11T18:43:32.245Z,5.97
2018-07-11T18:49:30.837Z,4.97
2018-07-11T18:56:28.921Z,5.70
2018-07-11T19:01:36.231Z,6.73
2018-07-11T19:06:43.302Z,6.83
2018-07-11T19:12:07.504Z,7.83
2018-07-11T19:17:04.542Z,6.23
2018-07-11T19:21:55.886Z,7.70
2018-07-11T19:26:57.324Z,7.10
2018-07-11T19:31:56.503Z,6.77
2018-07-11T19:36:55.701Z,6.83
2018-07-11T19:41:45.611Z,6.80
2018-07-11T19:46:39.954Z,6.33
2018-07-11T19:54:06.051Z,6.63
2018-07-11T19:58:50.297Z,6.23
2018-07-11T20:03:33.875Z,7.00
2018-07-11T20:08:17.711Z,6.87
2018-07-11T20:13:01.341Z,6.40
2018-07-11T20:17:45.339Z,6.53
2018-07-11T20:22:29.475Z,7.00
2018-07-11T20:27:13.139Z,6.87
2018-07-11T20:31:56.943Z,6.60
2018-07-11T20:36:40.684Z,7.33
2018-07-11T20:41:28.101Z,6.83
2018-07-11T20:46:11.756Z,5.83
2018-07-11T20:50:59.980Z,6.50
2018-07-11T20:55:43.664Z,6.53
2018-07-11T21:00:37.927Z,5.83
2018-07-11T21:07:48.213Z,5.57
2018-07-11T21:12:58.990Z,6.00
2018-07-11T21:19:50.573Z,6.33
2018-07-11T21:24:34.178Z,6.03
2018-07-11T21:29:17.881Z,5.40
2018-07-11T21:34:01.408Z,5.07
2018-07-11T21:38:49.578Z,5.53
2018-07-11T21:43:33.024Z,5.93
2018-07-11T21:48:17.530Z,5.83
2018-07-11T21:53:01.148Z,6.37
2018-07-11T21:57:44.889Z,5.60
2018-07-11T22:02:28.377Z,6.07
2018-07-11T22:07:12.002Z,7.03
2018-07-11T22:11:58.979Z,5.90
2018-07-11T22:16:42.657Z,6.17
2018-07-11T22:21:31.461Z,6.57
2018-07-11T22:26:13.285Z,6.43
2018-07-11T22:30:56.105Z,6.37
2018-07-11T22:35:37.985Z,6.03
2018-07-11T22:40:25.630Z,5.97
2018-07-11T22:45:07.340Z,6.00
2018-07-11T22:49:54.520Z,5.83
2018-07-11T22:54:36.354Z,5.57
2018-07-11T22:59:21.315Z,6.23
2018-07-11T23:04:03.169Z,6.10
2018-07-11T23:08:46.201Z,5.60
2018-07-11T23:13:28.052Z,5.60
2018-07-11T23:18:10.215Z,6.03
2018-07-11T23:22:52.067Z,5.80
2018-07-11T23:27:33.930Z,5.60
2018-07-11T23:32:15.842Z,5.90
2018-07-11T23:36:57.630Z,5.90
2018-07-11T23:41:44.840Z,5.60
2018-07-11T23:46:27.361Z,5.67
2018-07-11T23:51:10.218Z,5.77
2018-07-11T23:55:52.050Z,5.50
